sensor_id;sensor_type;location;lat;lon;timestamp;pressure;altitude;pressure_sealevel;temperature;humidity
61345;BME280;47216;42.656;23.232;2023-04-01T00:01:41;93010.25;;;14.30;42.78
61345;BME280;47216;42.656;23.232;2023-04-01T00:04:07;93007.91;;;14.28;42.05
61345;BME280;47216;42.656;23.232;2023-04-01T00:06:35;92999.97;;;14.34;42.37
61345;BME280;47216;42.656;23.232;2023-04-01T00:09:01;93010.06;;;14.26;42.64
61345;BME280;47216;42.656;23.232;2023-04-01T00:11:28;92999.06;;;14.24;42.10
61345;BME280;47216;42.656;23.232;2023-04-01T00:13:55;93006.44;;;14.22;42.13
61345;BME280;47216;42.656;23.232;2023-04-01T00:16:22;92999.97;;;14.34;42.19
61345;BME280;47216;42.656;23.232;2023-04-01T00:18:51;93003.25;;;14.39;42.27
61345;BME280;47216;42.656;23.232;2023-04-01T00:21:18;93009.78;;;14.42;41.93
61345;BME280;47216;42.656;23.232;2023-04-01T00:23:45;93011.81;;;14.45;41.60
61345;BME280;47216;42.656;23.232;2023-04-01T00:26:12;93009.09;;;14.50;42.21
61345;BME280;47216;42.656;23.232;2023-04-01T00:28:40;93003.69;;;14.60;42.99
61345;BME280;47216;42.656;23.232;2023-04-01T00:31:08;93004.06;;;14.67;45.21
61345;BME280;47216;42.656;23.232;2023-04-01T00:33:35;92998.59;;;14.50;47.50
61345;BME280;47216;42.656;23.232;2023-04-01T00:36:08;92986.75;;;14.39;48.54
61345;BME280;47216;42.656;23.232;2023-04-01T00:38:36;92983.63;;;14.37;49.34
61345;BME280;47216;42.656;23.232;2023-04-01T00:41:03;92989.84;;;14.27;49.06
61345;BME280;47216;42.656;23.232;2023-04-01T00:43:30;92984.44;;;14.23;49.72
61345;BME280;47216;42.656;23.232;2023-04-01T00:45:57;92992.75;;;14.25;50.14
61345;BME280;47216;42.656;23.232;2023-04-01T00:48:26;92991.59;;;14.18;51.18
61345;BME280;47216;42.656;23.232;2023-04-01T00:50:58;92987.97;;;14.00;51.56
61345;BME280;47216;42.656;23.232;2023-04-01T00:53:28;92988.81;;;13.81;52.05
61345;BME280;47216;42.656;23.232;2023-04-01T00:56:00;92985.88;;;13.69;52.42
61345;BME280;47216;42.656;23.232;2023-04-01T00:58:29;92978.25;;;13.54;53.28
61345;BME280;47216;42.656;23.232;2023-04-01T01:00:58;92963.84;;;13.37;53.39
61345;BME280;47216;42.656;23.232;2023-04-01T01:03:26;92960.06;;;13.30;53.44
61345;BME280;47216;42.656;23.232;2023-04-01T01:06:08;92958.53;;;13.29;53.66
61345;BME280;47216;42.656;23.232;2023-04-01T01:08:50;92951.44;;;13.29;53.96
61345;BME280;47216;42.656;23.232;2023-04-01T01:11:24;92953.75;;;13.31;54.18
61345;BME280;47216;42.656;23.232;2023-04-01T01:14:01;92949.88;;;13.28;54.39
61345;BME280;47216;42.656;23.232;2023-04-01T01:16:30;92944.09;;;13.26;54.64
61345;BME280;47216;42.656;23.232;2023-04-01T01:19:07;92943.63;;;13.24;54.69
61345;BME280;47216;42.656;23.232;2023-04-01T01:22:01;92936.19;;;13.12;54.46
61345;BME280;47216;42.656;23.232;2023-04-01T01:24:52;92929.19;;;13.08;54.60
61345;BME280;47216;42.656;23.232;2023-04-01T01:27:23;92922.00;;;12.99;55.03
61345;BME280;47216;42.656;23.232;2023-04-01T01:30:09;92916.00;;;12.99;54.87
61345;BME280;47216;42.656;23.232;2023-04-01T01:32:59;92925.25;;;12.91;54.74
61345;BME280;47216;42.656;23.232;2023-04-01T01:35:31;92929.31;;;12.83;55.10
61345;BME280;47216;42.656;23.232;2023-04-01T01:38:03;92930.16;;;12.79;55.48
61345;BME280;47216;42.656;23.232;2023-04-01T01:40:31;92928.47;;;12.69;55.26
61345;BME280;47216;42.656;23.232;2023-04-01T01:43:03;92928.22;;;12.66;55.71
61345;BME280;47216;42.656;23.232;2023-04-01T01:45:33;92925.34;;;12.48;55.67
61345;BME280;47216;42.656;23.232;2023-04-01T01:48:02;92919.53;;;12.51;55.58
61345;BME280;47216;42.656;23.232;2023-04-01T01:50:33;92915.03;;;12.57;54.91
61345;BME280;47216;42.656;23.232;2023-04-01T01:53:02;92905.00;;;12.64;54.69
61345;BME280;47216;42.656;23.232;2023-04-01T01:55:31;92899.19;;;12.67;54.87
61345;BME280;47216;42.656;23.232;2023-04-01T01:58:00;92904.63;;;12.71;55.10
61345;BME280;47216;42.656;23.232;2023-04-01T02:00:29;92904.16;;;12.69;55.07
61345;BME280;47216;42.656;23.232;2023-04-01T02:02:57;92899.53;;;12.60;55.22
61345;BME280;47216;42.656;23.232;2023-04-01T02:05:27;92904.78;;;12.60;55.45
61345;BME280;47216;42.656;23.232;2023-04-01T02:08:01;92895.84;;;12.61;55.13
61345;BME280;47216;42.656;23.232;2023-04-01T02:10:31;92900.63;;;12.59;54.01
61345;BME280;47216;42.656;23.232;2023-04-01T02:13:03;92899.47;;;12.66;54.75
61345;BME280;47216;42.656;23.232;2023-04-01T02:15:33;92897.28;;;12.73;54.69
61345;BME280;47216;42.656;23.232;2023-04-01T02:18:05;92891.06;;;12.69;54.60
61345;BME280;47216;42.656;23.232;2023-04-01T02:20:32;92883.28;;;12.64;54.50
61345;BME280;47216;42.656;23.232;2023-04-01T02:23:00;92896.84;;;12.66;55.01
61345;BME280;47216;42.656;23.232;2023-04-01T02:25:29;92895.81;;;12.67;55.04
61345;BME280;47216;42.656;23.232;2023-04-01T02:27:58;92904.78;;;12.60;54.82
61345;BME280;47216;42.656;23.232;2023-04-01T02:30:27;92901.66;;;12.58;54.63
61345;BME280;47216;42.656;23.232;2023-04-01T02:32:56;92896.06;;;12.65;54.62
61345;BME280;47216;42.656;23.232;2023-04-01T02:35:24;92895.66;;;12.58;53.81
61345;BME280;47216;42.656;23.232;2023-04-01T02:37:55;92902.81;;;12.52;54.09
61345;BME280;47216;42.656;23.232;2023-04-01T02:40:23;92898.28;;;12.58;53.92
61345;BME280;47216;42.656;23.232;2023-04-01T02:42:50;92904.34;;;12.53;54.61
61345;BME280;47216;42.656;23.232;2023-04-01T02:45:17;92899.75;;;12.64;53.84
61345;BME280;47216;42.656;23.232;2023-04-01T02:47:44;92915.03;;;12.57;53.50
61345;BME280;47216;42.656;23.232;2023-04-01T02:50:11;92913.75;;;12.54;53.78
61345;BME280;47216;42.656;23.232;2023-04-01T02:52:38;92904.34;;;12.53;52.85
61345;BME280;47216;42.656;23.232;2023-04-01T02:55:07;92910.16;;;12.50;52.71
61345;BME280;47216;42.656;23.232;2023-04-01T02:57:35;92917.44;;;12.53;53.30
61345;BME280;47216;42.656;23.232;2023-04-01T03:00:02;92914.03;;;12.53;48.79
61345;BME280;47216;42.656;23.232;2023-04-01T03:02:30;92917.06;;;12.60;45.46
61345;BME280;47216;42.656;23.232;2023-04-01T03:04:56;92918.16;;;12.78;45.00
61345;BME280;47216;42.656;23.232;2023-04-01T03:07:23;92910.97;;;13.02;44.88
61345;BME280;47216;42.656;23.232;2023-04-01T03:09:50;92912.53;;;13.03;44.34
61345;BME280;47216;42.656;23.232;2023-04-01T03:12:17;92910.53;;;13.14;43.92
61345;BME280;47216;42.656;23.232;2023-04-01T03:14:45;92905.41;;;13.23;43.93
61345;BME280;47216;42.656;23.232;2023-04-01T03:17:12;92937.31;;;13.25;44.18
61345;BME280;47216;42.656;23.232;2023-04-01T03:19:38;92943.34;;;13.25;45.97
61345;BME280;47216;42.656;23.232;2023-04-01T03:22:05;92933.31;;;13.14;49.55
61345;BME280;47216;42.656;23.232;2023-04-01T03:24:32;92940.41;;;12.94;51.88
61345;BME280;47216;42.656;23.232;2023-04-01T03:26:59;92939.75;;;12.83;53.32
61345;BME280;47216;42.656;23.232;2023-04-01T03:29:25;92917.28;;;12.64;51.43
61345;BME280;47216;42.656;23.232;2023-04-01T03:31:53;92909.09;;;12.51;52.97
61345;BME280;47216;42.656;23.232;2023-04-01T03:34:23;92911.41;;;12.53;53.49
61345;BME280;47216;42.656;23.232;2023-04-01T03:36:51;92905.34;;;12.57;55.31
61345;BME280;47216;42.656;23.232;2023-04-01T03:39:18;92894.88;;;12.57;54.43
61345;BME280;47216;42.656;23.232;2023-04-01T03:41:45;92888.94;;;12.71;56.46
61345;BME280;47216;42.656;23.232;2023-04-01T03:44:12;92877.91;;;12.74;58.99
61345;BME280;47216;42.656;23.232;2023-04-01T03:46:39;92860.09;;;12.76;59.77
61345;BME280;47216;42.656;23.232;2023-04-01T03:49:08;92847.34;;;12.88;59.99
61345;BME280;47216;42.656;23.232;2023-04-01T03:51:37;92851.31;;;12.86;61.50
61345;BME280;47216;42.656;23.232;2023-04-01T03:54:03;92839.66;;;12.78;61.13
61345;BME280;47216;42.656;23.232;2023-04-01T03:56:30;92832.09;;;12.76;61.45
61345;BME280;47216;42.656;23.232;2023-04-01T03:58:58;92824.44;;;12.80;61.99
61345;BME280;47216;42.656;23.232;2023-04-01T04:01:25;92826.59;;;12.78;61.86
61345;BME280;47216;42.656;23.232;2023-04-01T04:03:52;92815.06;;;12.79;61.25
61345;BME280;47216;42.656;23.232;2023-04-01T04:06:20;92816.69;;;12.75;60.13
61345;BME280;47216;42.656;23.232;2023-04-01T04:08:46;92819.38;;;12.70;61.22
61345;BME280;47216;42.656;23.232;2023-04-01T04:11:13;92828.84;;;12.66;62.33
61345;BME280;47216;42.656;23.232;2023-04-01T04:13:40;92817.03;;;12.68;62.72
61345;BME280;47216;42.656;23.232;2023-04-01T04:16:08;92815.78;;;12.66;62.17
61345;BME280;47216;42.656;23.232;2023-04-01T04:18:35;92806.03;;;12.71;62.20
61345;BME280;47216;42.656;23.232;2023-04-01T04:21:02;92811.19;;;12.57;62.62
61345;BME280;47216;42.656;23.232;2023-04-01T04:23:30;92808.22;;;12.45;63.65
61345;BME280;47216;42.656;23.232;2023-04-01T04:26:00;92797.66;;;12.36;63.40
61345;BME280;47216;42.656;23.232;2023-04-01T04:28:28;92796.41;;;12.34;64.54
61345;BME280;47216;42.656;23.232;2023-04-01T04:30:55;92795.94;;;12.27;64.64
61345;BME280;47216;42.656;23.232;2023-04-01T04:33:22;92791.22;;;12.10;63.22
61345;BME280;47216;42.656;23.232;2023-04-01T04:35:50;92793.63;;;12.06;62.51
61345;BME280;47216;42.656;23.232;2023-04-01T04:38:17;92782.47;;;12.01;62.53
61345;BME280;47216;42.656;23.232;2023-04-01T04:40:45;92776.47;;;12.00;62.72
61345;BME280;47216;42.656;23.232;2023-04-01T04:43:14;92770.66;;;12.03;63.92
61345;BME280;47216;42.656;23.232;2023-04-01T04:45:41;92772.78;;;12.01;64.71
61345;BME280;47216;42.656;23.232;2023-04-01T04:48:09;92769.56;;;12.09;64.47
61345;BME280;47216;42.656;23.232;2023-04-01T04:50:36;92765.31;;;12.13;64.32
61345;BME280;47216;42.656;23.232;2023-04-01T04:53:03;92761.72;;;12.09;64.41
61345;BME280;47216;42.656;23.232;2023-04-01T04:55:29;92765.66;;;12.07;64.72
61345;BME280;47216;42.656;23.232;2023-04-01T04:57:57;92764.06;;;12.11;64.95
61345;BME280;47216;42.656;23.232;2023-04-01T05:00:24;92762.41;;;12.15;64.79
61345;BME280;47216;42.656;23.232;2023-04-01T05:02:51;92757.97;;;12.15;64.50
61345;BME280;47216;42.656;23.232;2023-04-01T05:05:18;92752.53;;;12.12;64.03
61345;BME280;47216;42.656;23.232;2023-04-01T05:07:45;92747.78;;;12.14;63.79
61345;BME280;47216;42.656;23.232;2023-04-01T05:10:12;92751.19;;;12.14;64.04
61345;BME280;47216;42.656;23.232;2023-04-01T05:12:38;92746.28;;;12.27;64.44
61345;BME280;47216;42.656;23.232;2023-04-01T05:15:08;92742.13;;;12.26;64.03
61345;BME280;47216;42.656;23.232;2023-04-01T05:17:35;92738.78;;;12.06;63.51
61345;BME280;47216;42.656;23.232;2023-04-01T05:20:02;92715.81;;;12.03;63.32
61345;BME280;47216;42.656;23.232;2023-04-01T05:22:29;92731.56;;;11.98;64.09
61345;BME280;47216;42.656;23.232;2023-04-01T05:24:56;92716.63;;;11.80;64.39
61345;BME280;47216;42.656;23.232;2023-04-01T05:27:22;92723.19;;;11.77;64.54
61345;BME280;47216;42.656;23.232;2023-04-01T05:29:49;92726.72;;;11.67;64.74
61345;BME280;47216;42.656;23.232;2023-04-01T05:32:17;92719.75;;;11.63;64.60
61345;BME280;47216;42.656;23.232;2023-04-01T05:34:44;92722.28;;;11.68;64.17
61345;BME280;47216;42.656;23.232;2023-04-01T05:37:11;92704.28;;;11.66;63.67
61345;BME280;47216;42.656;23.232;2023-04-01T05:39:38;92726.16;;;11.70;64.25
61345;BME280;47216;42.656;23.232;2023-04-01T05:42:06;92719.03;;;11.76;64.16
61345;BME280;47216;42.656;23.232;2023-04-01T05:44:33;92708.63;;;11.95;64.08
61345;BME280;47216;42.656;23.232;2023-04-01T05:47:00;92696.81;;;12.16;62.59
61345;BME280;47216;42.656;23.232;2023-04-01T05:49:28;92688.38;;;12.19;61.53
61345;BME280;47216;42.656;23.232;2023-04-01T05:51:55;92680.47;;;12.25;60.18
61345;BME280;47216;42.656;23.232;2023-04-01T05:54:22;92703.25;;;12.38;60.99
61345;BME280;47216;42.656;23.232;2023-04-01T05:56:48;92692.56;;;12.53;61.03
61345;BME280;47216;42.656;23.232;2023-04-01T05:59:15;92691.88;;;12.61;58.82
61345;BME280;47216;42.656;23.232;2023-04-01T06:01:42;92689.34;;;12.56;57.14
61345;BME280;47216;42.656;23.232;2023-04-01T06:04:12;92706.50;;;12.63;56.57
61345;BME280;47216;42.656;23.232;2023-04-01T06:06:42;92688.97;;;12.63;56.16
61345;BME280;47216;42.656;23.232;2023-04-01T06:09:14;92701.59;;;12.75;56.29
61345;BME280;47216;42.656;23.232;2023-04-01T06:11:51;92700.63;;;12.85;55.21
61345;BME280;47216;42.656;23.232;2023-04-01T06:14:29;92704.03;;;12.85;55.80
61345;BME280;47216;42.656;23.232;2023-04-01T06:17:12;92689.00;;;12.91;55.22
61345;BME280;47216;42.656;23.232;2023-04-01T06:19:50;92720.63;;;12.94;55.35
61345;BME280;47216;42.656;23.232;2023-04-01T06:22:39;92703.94;;;12.90;54.66
61345;BME280;47216;42.656;23.232;2023-04-01T06:25:31;92707.44;;;12.99;54.49
61345;BME280;47216;42.656;23.232;2023-04-01T06:28:23;92686.50;;;12.99;53.95
61345;BME280;47216;42.656;23.232;2023-04-01T06:31:02;92693.28;;;13.00;53.41
61345;BME280;47216;42.656;23.232;2023-04-01T06:33:48;92694.84;;;13.01;53.45
61345;BME280;47216;42.656;23.232;2023-04-01T06:36:34;92682.72;;;12.92;53.32
61345;BME280;47216;42.656;23.232;2023-04-01T06:39:26;92674.97;;;13.00;52.74
61345;BME280;47216;42.656;23.232;2023-04-01T06:42:19;92684.47;;;12.96;52.46
61345;BME280;47216;42.656;23.232;2023-04-01T06:44:58;92682.63;;;13.11;55.18
61345;BME280;47216;42.656;23.232;2023-04-01T06:47:37;92692.13;;;13.20;53.09
61345;BME280;47216;42.656;23.232;2023-04-01T06:50:11;92673.78;;;13.20;53.12
61345;BME280;47216;42.656;23.232;2023-04-01T06:52:50;92661.88;;;13.28;52.79
61345;BME280;47216;42.656;23.232;2023-04-01T06:55:27;92661.81;;;13.33;52.48
61345;BME280;47216;42.656;23.232;2023-04-01T06:58:00;92657.50;;;13.37;52.39
61345;BME280;47216;42.656;23.232;2023-04-01T07:00:30;92645.38;;;13.41;52.48
61345;BME280;47216;42.656;23.232;2023-04-01T07:03:05;92649.47;;;13.48;52.25
61345;BME280;47216;42.656;23.232;2023-04-01T07:05:36;92648.47;;;13.57;52.30
61345;BME280;47216;42.656;23.232;2023-04-01T07:08:04;92651.72;;;13.63;51.92
61345;BME280;47216;42.656;23.232;2023-04-01T07:10:43;92649.22;;;13.58;52.42
61345;BME280;47216;42.656;23.232;2023-04-01T07:13:17;92650.56;;;13.69;52.18
61345;BME280;47216;42.656;23.232;2023-04-01T07:15:54;92653.53;;;13.76;52.16
61345;BME280;47216;42.656;23.232;2023-04-01T07:18:30;92663.53;;;13.74;51.30
61345;BME280;47216;42.656;23.232;2023-04-01T07:20:58;92667.59;;;13.80;51.26
61345;BME280;47216;42.656;23.232;2023-04-01T07:23:28;92667.00;;;13.83;51.44
61345;BME280;47216;42.656;23.232;2023-04-01T07:26:00;92680.47;;;13.91;52.06
61345;BME280;47216;42.656;23.232;2023-04-01T07:28:30;92653.56;;;13.99;52.12
61345;BME280;47216;42.656;23.232;2023-04-01T07:31:10;92660.06;;;14.01;50.86
61345;BME280;47216;42.656;23.232;2023-04-01T07:33:45;92657.03;;;14.08;50.18
61345;BME280;47216;42.656;23.232;2023-04-01T07:36:21;92664.41;;;14.06;50.18
61345;BME280;47216;42.656;23.232;2023-04-01T07:38:57;92656.41;;;14.11;50.50
61345;BME280;47216;42.656;23.232;2023-04-01T07:41:33;92644.56;;;14.14;50.59
61345;BME280;47216;42.656;23.232;2023-04-01T07:44:11;92656.00;;;14.18;50.68
61345;BME280;47216;42.656;23.232;2023-04-01T07:47:11;92656.00;;;14.18;50.87
61345;BME280;47216;42.656;23.232;2023-04-01T07:49:52;92649.38;;;14.20;50.38
61345;BME280;47216;42.656;23.232;2023-04-01T07:52:26;92645.72;;;14.21;50.47
61345;BME280;47216;42.656;23.232;2023-04-01T07:55:01;92655.53;;;14.16;50.95
61345;BME280;47216;42.656;23.232;2023-04-01T07:57:37;92631.94;;;14.16;50.60
61345;BME280;47216;42.656;23.232;2023-04-01T08:00:11;92630.56;;;14.18;51.58
61345;BME280;47216;42.656;23.232;2023-04-01T08:02:52;92634.25;;;14.17;52.13
61345;BME280;47216;42.656;23.232;2023-04-01T08:05:25;92625.31;;;14.18;51.81
61345;BME280;47216;42.656;23.232;2023-04-01T08:07:59;92623.66;;;14.22;51.87
61345;BME280;47216;42.656;23.232;2023-04-01T08:10:36;92620.91;;;14.27;52.76
61345;BME280;47216;42.656;23.232;2023-04-01T08:13:14;92621.09;;;14.31;52.88
61345;BME280;47216;42.656;23.232;2023-04-01T08:15:49;92612.94;;;14.33;52.42
61345;BME280;47216;42.656;23.232;2023-04-01T08:18:27;92607.69;;;14.33;51.91
61345;BME280;47216;42.656;23.232;2023-04-01T08:20:59;92604.09;;;14.28;52.44
61345;BME280;47216;42.656;23.232;2023-04-01T08:23:28;92588.94;;;14.25;52.18
61345;BME280;47216;42.656;23.232;2023-04-01T08:26:02;92591.63;;;14.34;52.52
61345;BME280;47216;42.656;23.232;2023-04-01T08:28:37;92572.69;;;14.46;51.90
61345;BME280;47216;42.656;23.232;2023-04-01T08:31:10;92562.53;;;14.53;52.10
61345;BME280;47216;42.656;23.232;2023-04-01T08:33:39;92555.06;;;14.60;51.56
61345;BME280;47216;42.656;23.232;2023-04-01T08:36:10;92537.78;;;14.68;51.38
61345;BME280;47216;42.656;23.232;2023-04-01T08:38:41;92530.84;;;14.63;49.30
61345;BME280;47216;42.656;23.232;2023-04-01T08:41:20;92518.19;;;14.65;48.68
61345;BME280;47216;42.656;23.232;2023-04-01T08:44:15;92519.59;;;14.80;48.89
61345;BME280;47216;42.656;23.232;2023-04-01T08:47:09;92530.91;;;14.98;48.06
61345;BME280;47216;42.656;23.232;2023-04-01T08:50:12;92514.09;;;15.08;42.70
61345;BME280;47216;42.656;23.232;2023-04-01T08:52:49;92534.00;;;15.18;41.75
61345;BME280;47216;42.656;23.232;2023-04-01T08:55:27;92520.75;;;15.40;40.05
61345;BME280;47216;42.656;23.232;2023-04-01T08:58:11;92510.84;;;15.54;39.29
61345;BME280;47216;42.656;23.232;2023-04-01T09:00:50;92513.63;;;15.67;38.84
61345;BME280;47216;42.656;23.232;2023-04-01T09:03:45;92517.63;;;15.73;39.00
61345;BME280;47216;42.656;23.232;2023-04-01T09:06:29;92521.19;;;15.77;38.94
61345;BME280;47216;42.656;23.232;2023-04-01T09:09:41;92519.81;;;15.80;38.44
61345;BME280;47216;42.656;23.232;2023-04-01T09:12:36;92510.50;;;15.82;39.81
61345;BME280;47216;42.656;23.232;2023-04-01T09:15:30;92510.34;;;15.87;39.41
61345;BME280;47216;42.656;23.232;2023-04-01T09:18:13;92511.72;;;15.93;38.47
61345;BME280;47216;42.656;23.232;2023-04-01T09:24:16;92511.53;;;16.07;38.72
61345;BME280;47216;42.656;23.232;2023-04-01T09:27:02;92505.84;;;15.96;38.64
61345;BME280;47216;42.656;23.232;2023-04-01T09:35:24;92496.59;;;15.90;39.68
61345;BME280;47216;42.656;23.232;2023-04-01T09:38:06;92498.59;;;15.85;39.39
61345;BME280;47216;42.656;23.232;2023-04-01T09:40:48;92480.34;;;15.88;39.82
61345;BME280;47216;42.656;23.232;2023-04-01T09:43:44;92467.50;;;15.95;39.79
61345;BME280;47216;42.656;23.232;2023-04-01T09:46:21;92457.41;;;16.06;39.80
61345;BME280;47216;42.656;23.232;2023-04-01T09:49:11;92459.22;;;16.14;40.15
61345;BME280;47216;42.656;23.232;2023-04-01T09:51:49;92456.00;;;16.09;40.12
61345;BME280;47216;42.656;23.232;2023-04-01T09:54:36;92447.94;;;16.14;40.16
61345;BME280;47216;42.656;23.232;2023-04-01T09:57:47;92447.22;;;16.05;40.56
61345;BME280;47216;42.656;23.232;2023-04-01T10:00:32;92433.56;;;16.11;40.33
61345;BME280;47216;42.656;23.232;2023-04-01T10:03:37;92434.34;;;16.12;40.39
61345;BME280;47216;42.656;23.232;2023-04-01T10:06:58;92429.00;;;16.29;40.32
61345;BME280;47216;42.656;23.232;2023-04-01T10:10:00;92429.91;;;16.33;40.67
61345;BME280;47216;42.656;23.232;2023-04-01T10:16:01;92417.75;;;16.50;38.84
61345;BME280;47216;42.656;23.232;2023-04-01T10:18:53;92430.28;;;16.53;38.99
61345;BME280;47216;42.656;23.232;2023-04-01T10:24:47;92401.63;;;16.81;39.32
61345;BME280;47216;42.656;23.232;2023-04-01T10:33:43;92389.91;;;16.91;38.47
61345;BME280;47216;42.656;23.232;2023-04-01T10:36:48;92374.75;;;17.09;38.40
61345;BME280;47216;42.656;23.232;2023-04-01T10:43:02;92368.53;;;17.26;37.78
61345;BME280;47216;42.656;23.232;2023-04-01T10:46:03;92373.22;;;17.41;38.15
61345;BME280;47216;42.656;23.232;2023-04-01T10:51:52;92354.75;;;17.41;38.68
61345;BME280;47216;42.656;23.232;2023-04-01T10:54:44;92357.19;;;17.46;37.74
61345;BME280;47216;42.656;23.232;2023-04-01T10:57:33;92353.34;;;17.56;38.13
61345;BME280;47216;42.656;23.232;2023-04-01T11:00:18;92355.25;;;17.68;38.30
61345;BME280;47216;42.656;23.232;2023-04-01T11:09:17;92345.22;;;17.49;37.34
61345;BME280;47216;42.656;23.232;2023-04-01T11:12:20;92339.75;;;17.54;37.36
61345;BME280;47216;42.656;23.232;2023-04-01T11:18:54;92356.09;;;17.47;37.87
61345;BME280;47216;42.656;23.232;2023-04-01T11:21:46;92359.66;;;17.30;38.08
61345;BME280;47216;42.656;23.232;2023-04-01T11:27:41;92416.91;;;16.88;41.45
61345;BME280;47216;42.656;23.232;2023-04-01T11:30:19;92412.69;;;16.66;43.08
61345;BME280;47216;42.656;23.232;2023-04-01T11:32:52;92420.25;;;16.46;43.11
61345;BME280;47216;42.656;23.232;2023-04-01T11:36:05;92449.34;;;16.11;47.07
61345;BME280;47216;42.656;23.232;2023-04-01T11:41:35;92523.19;;;15.10;53.26
61345;BME280;47216;42.656;23.232;2023-04-01T11:44:15;92584.41;;;14.40;56.51
61345;BME280;47216;42.656;23.232;2023-04-01T11:46:52;92625.53;;;13.63;63.04
61345;BME280;47216;42.656;23.232;2023-04-01T11:52:22;92617.09;;;12.60;67.77
61345;BME280;47216;42.656;23.232;2023-04-01T11:55:05;92615.94;;;12.39;70.09
61345;BME280;47216;42.656;23.232;2023-04-01T11:57:45;92625.75;;;12.14;71.80
61345;BME280;47216;42.656;23.232;2023-04-01T12:00:32;92607.16;;;12.02;72.74
61345;BME280;47216;42.656;23.232;2023-04-01T12:03:18;92610.63;;;11.78;72.31
61345;BME280;47216;42.656;23.232;2023-04-01T12:05:54;92615.84;;;11.78;73.61
61345;BME280;47216;42.656;23.232;2023-04-01T12:08:33;92613.38;;;11.87;74.84
61345;BME280;47216;42.656;23.232;2023-04-01T12:11:09;92599.88;;;11.99;75.16
61345;BME280;47216;42.656;23.232;2023-04-01T12:13:47;92590.53;;;12.12;75.42
61345;BME280;47216;42.656;23.232;2023-04-01T12:16:32;92600.75;;;12.08;74.54
61345;BME280;47216;42.656;23.232;2023-04-01T12:19:10;92587.31;;;12.15;74.58
61345;BME280;47216;42.656;23.232;2023-04-01T12:21:43;92593.44;;;12.24;74.33
61345;BME280;47216;42.656;23.232;2023-04-01T12:24:35;92599.25;;;12.21;74.25
61345;BME280;47216;42.656;23.232;2023-04-01T12:27:14;92605.03;;;12.04;74.32
61345;BME280;47216;42.656;23.232;2023-04-01T12:30:00;92602.72;;;11.84;74.85
61345;BME280;47216;42.656;23.232;2023-04-01T12:32:38;92617.84;;;11.68;75.23
61345;BME280;47216;42.656;23.232;2023-04-01T12:35:17;92603.59;;;11.60;75.50
61345;BME280;47216;42.656;23.232;2023-04-01T12:37:59;92623.00;;;11.54;76.01
61345;BME280;47216;42.656;23.232;2023-04-01T12:40:48;92615.84;;;11.41;75.42
61345;BME280;47216;42.656;23.232;2023-04-01T12:43:28;92609.53;;;11.28;75.12
61345;BME280;47216;42.656;23.232;2023-04-01T12:46:04;92592.44;;;11.35;75.75
61345;BME280;47216;42.656;23.232;2023-04-01T12:49:04;92597.31;;;11.42;77.25
61345;BME280;47216;42.656;23.232;2023-04-01T12:51:41;92597.59;;;11.41;76.76
61345;BME280;47216;42.656;23.232;2023-04-01T12:57:31;92567.28;;;11.26;76.35
61345;BME280;47216;42.656;23.232;2023-04-01T13:00:12;92572.66;;;11.34;76.87
61345;BME280;47216;42.656;23.232;2023-04-01T13:02:59;92569.94;;;11.40;76.11
61345;BME280;47216;42.656;23.232;2023-04-01T13:05:44;92593.94;;;11.42;76.69
61345;BME280;47216;42.656;23.232;2023-04-01T13:08:27;92540.53;;;11.34;73.39
61345;BME280;47216;42.656;23.232;2023-04-01T13:11:05;92505.47;;;11.40;72.66
61345;BME280;47216;42.656;23.232;2023-04-01T13:13:51;92521.41;;;11.39;72.58
61345;BME280;47216;42.656;23.232;2023-04-01T13:16:25;92503.81;;;11.30;70.17
61345;BME280;47216;42.656;23.232;2023-04-01T13:18:58;92513.47;;;11.30;70.77
61345;BME280;47216;42.656;23.232;2023-04-01T13:21:43;92514.25;;;11.30;71.74
61345;BME280;47216;42.656;23.232;2023-04-01T13:24:36;92522.00;;;11.35;70.79
61345;BME280;47216;42.656;23.232;2023-04-01T13:27:10;92503.09;;;11.44;70.66
61345;BME280;47216;42.656;23.232;2023-04-01T13:29:41;92507.16;;;11.50;70.12
61345;BME280;47216;42.656;23.232;2023-04-01T13:32:20;92510.47;;;11.55;69.78
61345;BME280;47216;42.656;23.232;2023-04-01T13:35:08;92494.63;;;11.66;68.65
61345;BME280;47216;42.656;23.232;2023-04-01T13:37:52;92490.06;;;11.71;68.40
61345;BME280;47216;42.656;23.232;2023-04-01T13:40:33;92468.63;;;11.74;67.11
61345;BME280;47216;42.656;23.232;2023-04-01T13:43:07;92464.28;;;11.84;66.34
61345;BME280;47216;42.656;23.232;2023-04-01T13:45:45;92469.56;;;11.97;65.77
61345;BME280;47216;42.656;23.232;2023-04-01T13:48:27;92465.47;;;12.19;65.18
61345;BME280;47216;42.656;23.232;2023-04-01T13:51:07;92455.63;;;12.30;62.96
61345;BME280;47216;42.656;23.232;2023-04-01T13:56:40;92446.63;;;12.72;61.47
61345;BME280;47216;42.656;23.232;2023-04-01T14:02:19;92446.38;;;12.96;58.87
61345;BME280;47216;42.656;23.232;2023-04-01T14:05:06;92428.03;;;13.19;58.33
61345;BME280;47216;42.656;23.232;2023-04-01T14:07:49;92414.16;;;13.32;56.94
61345;BME280;47216;42.656;23.232;2023-04-01T14:10:24;92416.28;;;13.30;56.47
61345;BME280;47216;42.656;23.232;2023-04-01T14:12:58;92425.22;;;13.29;55.61
61345;BME280;47216;42.656;23.232;2023-04-01T14:15:42;92418.06;;;13.43;55.39
61345;BME280;47216;42.656;23.232;2023-04-01T14:18:38;92419.19;;;13.51;55.19
61345;BME280;47216;42.656;23.232;2023-04-01T14:21:18;92424.19;;;13.70;54.47
61345;BME280;47216;42.656;23.232;2023-04-01T14:23:56;92402.69;;;13.82;54.91
61345;BME280;47216;42.656;23.232;2023-04-01T14:29:42;92397.28;;;13.78;54.04
61345;BME280;47216;42.656;23.232;2023-04-01T14:32:16;92380.50;;;13.88;54.19
61345;BME280;47216;42.656;23.232;2023-04-01T14:34:55;92387.78;;;14.00;54.79